sensor_id;sensor_type;location;lat;lon;timestamp;P1;durP1;ratioP1;P2;durP2;ratioP2
20391;SDS011;10355;53.688;10.078;2023-04-01T00:01:07;4.85;;;2.15;;
20391;SDS011;10355;53.688;10.078;2023-04-01T00:03:50;3.08;;;1.85;;
20391;SDS011;10355;53.688;10.078;2023-04-01T00:06:34;3.40;;;1.65;;
20391;SDS011;10355;53.688;10.078;2023-04-01T00:09:16;3.70;;;1.60;;
20391;SDS011;10355;53.688;10.078;2023-04-01T00:11:59;6.22;;;2.30;;
20391;SDS011;10355;53.688;10.078;2023-04-01T00:14:42;4.30;;;2.40;;
20391;SDS011;10355;53.688;10.078;2023-04-01T00:17:25;3.28;;;1.98;;
20391;SDS011;10355;53.688;10.078;2023-04-01T00:20:08;4.03;;;1.60;;
20391;SDS011;10355;53.688;10.078;2023-04-01T00:22:52;3.47;;;1.98;;
20391;SDS011;10355;53.688;10.078;2023-04-01T00:25:35;3.60;;;1.80;;
20391;SDS011;10355;53.688;10.078;2023-04-01T00:28:18;4.22;;;2.30;;
20391;SDS011;10355;53.688;10.078;2023-04-01T00:31:04;6.13;;;2.10;;
20391;SDS011;10355;53.688;10.078;2023-04-01T00:33:47;5.35;;;2.05;;
20391;SDS011;10355;53.688;10.078;2023-04-01T00:36:30;5.22;;;2.00;;
20391;SDS011;10355;53.688;10.078;2023-04-01T00:39:14;4.93;;;2.30;;
20391;SDS011;10355;53.688;10.078;2023-04-01T00:41:57;6.50;;;2.10;;
20391;SDS011;10355;53.688;10.078;2023-04-01T00:44:39;5.03;;;1.90;;
20391;SDS011;10355;53.688;10.078;2023-04-01T00:47:22;4.70;;;2.10;;
20391;SDS011;10355;53.688;10.078;2023-04-01T00:50:07;7.68;;;2.35;;
20391;SDS011;10355;53.688;10.078;2023-04-01T00:52:50;5.45;;;2.30;;
20391;SDS011;10355;53.688;10.078;2023-04-01T00:55:35;6.72;;;2.33;;
20391;SDS011;10355;53.688;10.078;2023-04-01T00:58:18;7.47;;;2.33;;
20391;SDS011;10355;53.688;10.078;2023-04-01T01:01:03;3.92;;;2.08;;
20391;SDS011;10355;53.688;10.078;2023-04-01T01:03:46;3.80;;;2.17;;
20391;SDS011;10355;53.688;10.078;2023-04-01T01:06:33;3.75;;;2.05;;
20391;SDS011;10355;53.688;10.078;2023-04-01T01:09:24;5.43;;;2.70;;
20391;SDS011;10355;53.688;10.078;2023-04-01T01:12:11;5.00;;;2.08;;
20391;SDS011;10355;53.688;10.078;2023-04-01T01:14:56;4.20;;;2.30;;
20391;SDS011;10355;53.688;10.078;2023-04-01T01:17:44;5.07;;;2.30;;
20391;SDS011;10355;53.688;10.078;2023-04-01T01:23:43;6.07;;;2.40;;
20391;SDS011;10355;53.688;10.078;2023-04-01T01:29:32;3.90;;;2.55;;
20391;SDS011;10355;53.688;10.078;2023-04-01T01:32:19;6.55;;;2.60;;
20391;SDS011;10355;53.688;10.078;2023-04-01T01:35:20;5.97;;;3.05;;
20391;SDS011;10355;53.688;10.078;2023-04-01T01:38:05;4.88;;;2.50;;
20391;SDS011;10355;53.688;10.078;2023-04-01T01:40:50;5.55;;;2.88;;
20391;SDS011;10355;53.688;10.078;2023-04-01T01:43:36;5.57;;;2.58;;
20391;SDS011;10355;53.688;10.078;2023-04-01T01:46:20;5.80;;;2.88;;
20391;SDS011;10355;53.688;10.078;2023-04-01T01:49:05;4.65;;;2.75;;
20391;SDS011;10355;53.688;10.078;2023-04-01T01:51:50;5.38;;;2.90;;
20391;SDS011;10355;53.688;10.078;2023-04-01T01:54:34;5.55;;;2.97;;
20391;SDS011;10355;53.688;10.078;2023-04-01T01:57:17;7.57;;;2.88;;
20391;SDS011;10355;53.688;10.078;2023-04-01T02:00:04;5.57;;;2.92;;
20391;SDS011;10355;53.688;10.078;2023-04-01T02:02:55;5.68;;;3.00;;
20391;SDS011;10355;53.688;10.078;2023-04-01T02:05:39;4.50;;;2.67;;
20391;SDS011;10355;53.688;10.078;2023-04-01T02:08:25;5.13;;;3.00;;
20391;SDS011;10355;53.688;10.078;2023-04-01T02:11:09;5.55;;;2.60;;
20391;SDS011;10355;53.688;10.078;2023-04-01T02:13:56;6.80;;;2.95;;
20391;SDS011;10355;53.688;10.078;2023-04-01T02:16:44;5.28;;;2.70;;
20391;SDS011;10355;53.688;10.078;2023-04-01T02:19:29;5.03;;;2.92;;
20391;SDS011;10355;53.688;10.078;2023-04-01T02:22:16;5.53;;;2.80;;
20391;SDS011;10355;53.688;10.078;2023-04-01T02:25:01;4.32;;;2.75;;
20391;SDS011;10355;53.688;10.078;2023-04-01T02:27:45;5.25;;;2.55;;
20391;SDS011;10355;53.688;10.078;2023-04-01T02:30:28;7.43;;;2.80;;
20391;SDS011;10355;53.688;10.078;2023-04-01T02:33:11;4.53;;;2.60;;
20391;SDS011;10355;53.688;10.078;2023-04-01T02:35:54;3.22;;;2.38;;
20391;SDS011;10355;53.688;10.078;2023-04-01T02:38:37;6.65;;;2.35;;
20391;SDS011;10355;53.688;10.078;2023-04-01T02:41:21;4.43;;;2.67;;
20391;SDS011;10355;53.688;10.078;2023-04-01T02:44:04;5.82;;;2.78;;
20391;SDS011;10355;53.688;10.078;2023-04-01T02:46:46;7.88;;;2.80;;
20391;SDS011;10355;53.688;10.078;2023-04-01T02:49:29;5.95;;;3.00;;
20391;SDS011;10355;53.688;10.078;2023-04-01T02:52:12;5.15;;;2.55;;
20391;SDS011;10355;53.688;10.078;2023-04-01T02:54:54;4.22;;;2.60;;
20391;SDS011;10355;53.688;10.078;2023-04-01T02:57:39;6.82;;;2.97;;
20391;SDS011;10355;53.688;10.078;2023-04-01T03:00:22;5.50;;;2.38;;
20391;SDS011;10355;53.688;10.078;2023-04-01T03:03:05;5.20;;;3.03;;
20391;SDS011;10355;53.688;10.078;2023-04-01T03:05:48;4.53;;;2.75;;
20391;SDS011;10355;53.688;10.078;2023-04-01T03:08:32;5.13;;;2.72;;
20391;SDS011;10355;53.688;10.078;2023-04-01T03:11:15;5.93;;;2.88;;
20391;SDS011;10355;53.688;10.078;2023-04-01T03:13:59;5.25;;;3.10;;
20391;SDS011;10355;53.688;10.078;2023-04-01T03:16:42;3.72;;;2.83;;
20391;SDS011;10355;53.688;10.078;2023-04-01T03:19:25;5.82;;;3.17;;
20391;SDS011;10355;53.688;10.078;2023-04-01T03:22:08;4.85;;;3.30;;
20391;SDS011;10355;53.688;10.078;2023-04-01T03:24:52;6.72;;;3.10;;
20391;SDS011;10355;53.688;10.078;2023-04-01T03:27:34;6.18;;;3.00;;
20391;SDS011;10355;53.688;10.078;2023-04-01T03:30:18;7.35;;;3.47;;
20391;SDS011;10355;53.688;10.078;2023-04-01T03:33:04;7.57;;;3.70;;
20391;SDS011;10355;53.688;10.078;2023-04-01T03:35:47;4.40;;;3.10;;
20391;SDS011;10355;53.688;10.078;2023-04-01T03:38:33;5.05;;;3.22;;
20391;SDS011;10355;53.688;10.078;2023-04-01T03:41:16;5.72;;;3.00;;
20391;SDS011;10355;53.688;10.078;2023-04-01T03:43:59;5.30;;;3.35;;
20391;SDS011;10355;53.688;10.078;2023-04-01T03:46:43;5.10;;;3.17;;
20391;SDS011;10355;53.688;10.078;2023-04-01T03:49:26;4.88;;;3.30;;
20391;SDS011;10355;53.688;10.078;2023-04-01T03:52:09;4.93;;;3.13;;
20391;SDS011;10355;53.688;10.078;2023-04-01T03:54:52;7.43;;;3.50;;
20391;SDS011;10355;53.688;10.078;2023-04-01T03:57:35;5.47;;;3.15;;
20391;SDS011;10355;53.688;10.078;2023-04-01T04:00:28;5.20;;;3.38;;
20391;SDS011;10355;53.688;10.078;2023-04-01T04:03:12;4.47;;;3.10;;
20391;SDS011;10355;53.688;10.078;2023-04-01T04:05:55;6.68;;;3.47;;
20391;SDS011;10355;53.688;10.078;2023-04-01T04:08:38;5.85;;;3.40;;
20391;SDS011;10355;53.688;10.078;2023-04-01T04:11:21;6.30;;;3.50;;
20391;SDS011;10355;53.688;10.078;2023-04-01T04:14:05;3.30;;;2.30;;
20391;SDS011;10355;53.688;10.078;2023-04-01T04:16:48;3.58;;;1.58;;
20391;SDS011;10355;53.688;10.078;2023-04-01T04:19:33;1.42;;;1.10;;
20391;SDS011;10355;53.688;10.078;2023-04-01T04:22:16;1.67;;;1.25;;
20391;SDS011;10355;53.688;10.078;2023-04-01T04:24:58;1.65;;;1.10;;
20391;SDS011;10355;53.688;10.078;2023-04-01T04:27:41;1.00;;;0.77;;
20391;SDS011;10355;53.688;10.078;2023-04-01T04:30:26;1.40;;;0.73;;
20391;SDS011;10355;53.688;10.078;2023-04-01T04:33:09;0.60;;;0.60;;
20391;SDS011;10355;53.688;10.078;2023-04-01T04:35:54;1.48;;;0.70;;
20391;SDS011;10355;53.688;10.078;2023-04-01T04:38:37;0.60;;;0.55;;
20391;SDS011;10355;53.688;10.078;2023-04-01T04:41:20;1.88;;;0.80;;
20391;SDS011;10355;53.688;10.078;2023-04-01T04:44:04;0.70;;;0.70;;
20391;SDS011;10355;53.688;10.078;2023-04-01T04:46:47;0.50;;;0.50;;
20391;SDS011;10355;53.688;10.078;2023-04-01T04:49:30;1.05;;;0.80;;
20391;SDS011;10355;53.688;10.078;2023-04-01T04:52:19;0.90;;;0.60;;
20391;SDS011;10355;53.688;10.078;2023-04-01T04:55:01;0.75;;;0.60;;
20391;SDS011;10355;53.688;10.078;2023-04-01T04:57:44;2.35;;;0.65;;
20391;SDS011;10355;53.688;10.078;2023-04-01T05:00:27;0.70;;;0.60;;
20391;SDS011;10355;53.688;10.078;2023-04-01T05:03:13;0.80;;;0.60;;
20391;SDS011;10355;53.688;10.078;2023-04-01T05:05:56;0.60;;;0.60;;
20391;SDS011;10355;53.688;10.078;2023-04-01T05:08:40;0.80;;;0.60;;
20391;SDS011;10355;53.688;10.078;2023-04-01T05:11:24;0.80;;;0.68;;
20391;SDS011;10355;53.688;10.078;2023-04-01T05:14:11;0.57;;;0.50;;
20391;SDS011;10355;53.688;10.078;2023-04-01T05:16:54;2.30;;;0.70;;
20391;SDS011;10355;53.688;10.078;2023-04-01T05:19:37;0.70;;;0.70;;
20391;SDS011;10355;53.688;10.078;2023-04-01T05:22:20;0.70;;;0.60;;
20391;SDS011;10355;53.688;10.078;2023-04-01T05:25:05;0.70;;;0.60;;
20391;SDS011;10355;53.688;10.078;2023-04-01T05:27:48;0.50;;;0.50;;
20391;SDS011;10355;53.688;10.078;2023-04-01T05:30:30;0.70;;;0.70;;
20391;SDS011;10355;53.688;10.078;2023-04-01T05:33:16;1.95;;;0.85;;
20391;SDS011;10355;53.688;10.078;2023-04-01T05:36:05;0.95;;;0.60;;
20391;SDS011;10355;53.688;10.078;2023-04-01T05:38:48;1.27;;;0.80;;
20391;SDS011;10355;53.688;10.078;2023-04-01T05:41:33;0.70;;;0.60;;
20391;SDS011;10355;53.688;10.078;2023-04-01T05:44:17;0.75;;;0.60;;
20391;SDS011;10355;53.688;10.078;2023-04-01T05:47:28;0.52;;;0.52;;
20391;SDS011;10355;53.688;10.078;2023-04-01T05:50:11;0.70;;;0.50;;
20391;SDS011;10355;53.688;10.078;2023-04-01T05:52:54;1.67;;;0.70;;
20391;SDS011;10355;53.688;10.078;2023-04-01T05:55:36;0.60;;;0.50;;
20391;SDS011;10355;53.688;10.078;2023-04-01T05:58:21;0.50;;;0.50;;
20391;SDS011;10355;53.688;10.078;2023-04-01T06:01:04;0.40;;;0.40;;
20391;SDS011;10355;53.688;10.078;2023-04-01T06:03:56;0.40;;;0.40;;
20391;SDS011;10355;53.688;10.078;2023-04-01T06:06:40;0.40;;;0.40;;
20391;SDS011;10355;53.688;10.078;2023-04-01T06:09:26;0.40;;;0.40;;
20391;SDS011;10355;53.688;10.078;2023-04-01T06:12:24;0.50;;;0.40;;
20391;SDS011;10355;53.688;10.078;2023-04-01T06:15:17;0.68;;;0.52;;
20391;SDS011;10355;53.688;10.078;2023-04-01T06:21:03;0.80;;;0.65;;
20391;SDS011;10355;53.688;10.078;2023-04-01T06:23:50;0.93;;;0.60;;
20391;SDS011;10355;53.688;10.078;2023-04-01T06:26:39;0.60;;;0.52;;
20391;SDS011;10355;53.688;10.078;2023-04-01T06:29:39;0.70;;;0.45;;
20391;SDS011;10355;53.688;10.078;2023-04-01T06:32:33;0.40;;;0.40;;
20391;SDS011;10355;53.688;10.078;2023-04-01T06:35:28;0.50;;;0.50;;
20391;SDS011;10355;53.688;10.078;2023-04-01T06:38:16;0.40;;;0.40;;
20391;SDS011;10355;53.688;10.078;2023-04-01T06:44:19;0.82;;;0.50;;
20391;SDS011;10355;53.688;10.078;2023-04-01T06:47:28;0.77;;;0.50;;
20391;SDS011;10355;53.688;10.078;2023-04-01T06:50:40;0.55;;;0.55;;
20391;SDS011;10355;53.688;10.078;2023-04-01T06:53:46;0.50;;;0.50;;
20391;SDS011;10355;53.688;10.078;2023-04-01T06:56:59;0.90;;;0.50;;
20391;SDS011;10355;53.688;10.078;2023-04-01T06:59:44;1.85;;;0.50;;
20391;SDS011;10355;53.688;10.078;2023-04-01T07:02:29;0.98;;;0.40;;
20391;SDS011;10355;53.688;10.078;2023-04-01T07:05:14;0.30;;;0.30;;
20391;SDS011;10355;53.688;10.078;2023-04-01T07:08:00;0.82;;;0.47;;
20391;SDS011;10355;53.688;10.078;2023-04-01T07:10:45;0.60;;;0.50;;
20391;SDS011;10355;53.688;10.078;2023-04-01T07:13:48;1.02;;;0.40;;
20391;SDS011;10355;53.688;10.078;2023-04-01T07:16:32;0.40;;;0.40;;
20391;SDS011;10355;53.688;10.078;2023-04-01T07:19:18;0.88;;;0.40;;
20391;SDS011;10355;53.688;10.078;2023-04-01T07:22:17;0.85;;;0.50;;
20391;SDS011;10355;53.688;10.078;2023-04-01T07:25:27;0.50;;;0.50;;
20391;SDS011;10355;53.688;10.078;2023-04-01T07:28:36;0.50;;;0.50;;
20391;SDS011;10355;53.688;10.078;2023-04-01T07:31:41;0.40;;;0.40;;
20391;SDS011;10355;53.688;10.078;2023-04-01T07:34:28;0.52;;;0.50;;
20391;SDS011;10355;53.688;10.078;2023-04-01T07:37:14;0.38;;;0.32;;
20391;SDS011;10355;53.688;10.078;2023-04-01T07:40:00;0.73;;;0.50;;
20391;SDS011;10355;53.688;10.078;2023-04-01T07:42:55;0.40;;;0.40;;
20391;SDS011;10355;53.688;10.078;2023-04-01T07:45:41;0.95;;;0.60;;
20391;SDS011;10355;53.688;10.078;2023-04-01T07:48:29;0.47;;;0.47;;
20391;SDS011;10355;53.688;10.078;2023-04-01T07:51:17;0.80;;;0.50;;
20391;SDS011;10355;53.688;10.078;2023-04-01T07:54:03;0.60;;;0.50;;
20391;SDS011;10355;53.688;10.078;2023-04-01T07:56:51;0.73;;;0.50;;
20391;SDS011;10355;53.688;10.078;2023-04-01T07:59:47;0.80;;;0.50;;
20391;SDS011;10355;53.688;10.078;2023-04-01T08:02:58;0.50;;;0.50;;
20391;SDS011;10355;53.688;10.078;2023-04-01T08:05:47;1.40;;;0.60;;
20391;SDS011;10355;53.688;10.078;2023-04-01T08:08:36;0.50;;;0.50;;
20391;SDS011;10355;53.688;10.078;2023-04-01T08:11:46;1.67;;;0.60;;
20391;SDS011;10355;53.688;10.078;2023-04-01T08:14:55;0.70;;;0.60;;
20391;SDS011;10355;53.688;10.078;2023-04-01T08:18:07;0.47;;;0.43;;
20391;SDS011;10355;53.688;10.078;2023-04-01T08:20:53;0.52;;;0.50;;
20391;SDS011;10355;53.688;10.078;2023-04-01T08:23:38;0.95;;;0.47;;
20391;SDS011;10355;53.688;10.078;2023-04-01T08:26:29;0.63;;;0.50;;
20391;SDS011;10355;53.688;10.078;2023-04-01T08:29:15;0.45;;;0.40;;
20391;SDS011;10355;53.688;10.078;2023-04-01T08:32:01;0.50;;;0.40;;
20391;SDS011;10355;53.688;10.078;2023-04-01T08:34:47;0.95;;;0.50;;
20391;SDS011;10355;53.688;10.078;2023-04-01T08:37:43;0.47;;;0.40;;
20391;SDS011;10355;53.688;10.078;2023-04-01T08:40:37;0.95;;;0.50;;
20391;SDS011;10355;53.688;10.078;2023-04-01T08:43:23;0.40;;;0.40;;
20391;SDS011;10355;53.688;10.078;2023-04-01T08:46:18;0.70;;;0.50;;
20391;SDS011;10355;53.688;10.078;2023-04-01T08:49:12;0.47;;;0.45;;
20391;SDS011;10355;53.688;10.078;2023-04-01T08:52:14;0.52;;;0.50;;
20391;SDS011;10355;53.688;10.078;2023-04-01T09:05:25;0.43;;;0.43;;
20391;SDS011;10355;53.688;10.078;2023-04-01T09:08:14;1.63;;;0.50;;
20391;SDS011;10355;53.688;10.078;2023-04-01T09:11:04;0.57;;;0.55;;
20391;SDS011;10355;53.688;10.078;2023-04-01T09:14:13;0.60;;;0.60;;
20391;SDS011;10355;53.688;10.078;2023-04-01T09:20:02;0.40;;;0.40;;
20391;SDS011;10355;53.688;10.078;2023-04-01T09:22:56;0.88;;;0.60;;
20391;SDS011;10355;53.688;10.078;2023-04-01T09:25:54;0.30;;;0.30;;
20391;SDS011;10355;53.688;10.078;2023-04-01T09:28:45;0.40;;;0.40;;
20391;SDS011;10355;53.688;10.078;2023-04-01T09:31:39;0.40;;;0.40;;
20391;SDS011;10355;53.688;10.078;2023-04-01T09:34:53;0.40;;;0.40;;
20391;SDS011;10355;53.688;10.078;2023-04-01T09:37:50;0.77;;;0.50;;
20391;SDS011;10355;53.688;10.078;2023-04-01T09:40:42;0.43;;;0.43;;
20391;SDS011;10355;53.688;10.078;2023-04-01T09:43:44;0.57;;;0.45;;
20391;SDS011;10355;53.688;10.078;2023-04-01T09:46:41;1.63;;;0.70;;
20391;SDS011;10355;53.688;10.078;2023-04-01T09:49:47;0.77;;;0.60;;
20391;SDS011;10355;53.688;10.078;2023-04-01T09:52:36;0.60;;;0.50;;
20391;SDS011;10355;53.688;10.078;2023-04-01T09:56:01;0.57;;;0.50;;
20391;SDS011;10355;53.688;10.078;2023-04-01T09:59:01;0.50;;;0.50;;
20391;SDS011;10355;53.688;10.078;2023-04-01T10:02:28;0.45;;;0.40;;
20391;SDS011;10355;53.688;10.078;2023-04-01T10:05:24;0.60;;;0.45;;
20391;SDS011;10355;53.688;10.078;2023-04-01T10:14:28;0.60;;;0.50;;
20391;SDS011;10355;53.688;10.078;2023-04-01T10:17:22;0.30;;;0.30;;
20391;SDS011;10355;53.688;10.078;2023-04-01T10:20:30;0.47;;;0.40;;
20391;SDS011;10355;53.688;10.078;2023-04-01T10:23:20;0.30;;;0.30;;
20391;SDS011;10355;53.688;10.078;2023-04-01T10:26:23;0.30;;;0.30;;
20391;SDS011;10355;53.688;10.078;2023-04-01T10:35:34;0.52;;;0.50;;
20391;SDS011;10355;53.688;10.078;2023-04-01T10:48:10;0.63;;;0.32;;
20391;SDS011;10355;53.688;10.078;2023-04-01T10:51:19;0.47;;;0.47;;
20391;SDS011;10355;53.688;10.078;2023-04-01T10:54:09;0.65;;;0.50;;
20391;SDS011;10355;53.688;10.078;2023-04-01T11:00:50;1.40;;;0.60;;
20391;SDS011;10355;53.688;10.078;2023-04-01T11:04:04;1.20;;;0.80;;
20391;SDS011;10355;53.688;10.078;2023-04-01T11:07:23;0.60;;;0.60;;
20391;SDS011;10355;53.688;10.078;2023-04-01T11:13:35;1.77;;;0.90;;
20391;SDS011;10355;53.688;10.078;2023-04-01T11:16:30;1.08;;;0.90;;
20391;SDS011;10355;53.688;10.078;2023-04-01T11:19:32;1.27;;;0.90;;
20391;SDS011;10355;53.688;10.078;2023-04-01T11:22:31;3.08;;;1.23;;
20391;SDS011;10355;53.688;10.078;2023-04-01T11:25:29;1.13;;;0.90;;
20391;SDS011;10355;53.688;10.078;2023-04-01T11:31:46;3.10;;;1.30;;
20391;SDS011;10355;53.688;10.078;2023-04-01T11:34:43;2.13;;;1.30;;
20391;SDS011;10355;53.688;10.078;2023-04-01T11:37:37;2.35;;;1.35;;
20391;SDS011;10355;53.688;10.078;2023-04-01T11:40:41;1.50;;;1.20;;
20391;SDS011;10355;53.688;10.078;2023-04-01T11:43:55;1.67;;;1.05;;
20391;SDS011;10355;53.688;10.078;2023-04-01T11:47:15;1.83;;;1.27;;
20391;SDS011;10355;53.688;10.078;2023-04-01T11:50:04;1.77;;;1.02;;
20391;SDS011;10355;53.688;10.078;2023-04-01T11:53:04;2.92;;;1.20;;
20391;SDS011;10355;53.688;10.078;2023-04-01T11:56:05;1.38;;;1.20;;
20391;SDS011;10355;53.688;10.078;2023-04-01T11:58:55;2.92;;;1.40;;
20391;SDS011;10355;53.688;10.078;2023-04-01T12:01:43;2.35;;;1.20;;
20391;SDS011;10355;53.688;10.078;2023-04-01T12:04:37;1.45;;;1.20;;
20391;SDS011;10355;53.688;10.078;2023-04-01T12:07:26;2.30;;;1.25;;
20391;SDS011;10355;53.688;10.078;2023-04-01T12:10:15;2.75;;;1.30;;
20391;SDS011;10355;53.688;10.078;2023-04-01T12:12:59;3.00;;;1.38;;
20391;SDS011;10355;53.688;10.078;2023-04-01T12:15:51;3.83;;;1.50;;
20391;SDS011;10355;53.688;10.078;2023-04-01T12:18:37;2.53;;;1.30;;
20391;SDS011;10355;53.688;10.078;2023-04-01T12:21:23;2.28;;;1.27;;
20391;SDS011;10355;53.688;10.078;2023-04-01T12:24:25;2.17;;;1.40;;
20391;SDS011;10355;53.688;10.078;2023-04-01T12:27:15;2.53;;;1.42;;
20391;SDS011;10355;53.688;10.078;2023-04-01T12:33:04;3.25;;;1.80;;
20391;SDS011;10355;53.688;10.078;2023-04-01T12:35:55;3.15;;;1.52;;
20391;SDS011;10355;53.688;10.078;2023-04-01T12:38:43;2.63;;;1.30;;
20391;SDS011;10355;53.688;10.078;2023-04-01T12:41:32;2.47;;;1.60;;
20391;SDS011;10355;53.688;10.078;2023-04-01T12:44:26;4.15;;;1.67;;
20391;SDS011;10355;53.688;10.078;2023-04-01T12:47:22;5.45;;;1.60;;
20391;SDS011;10355;53.688;10.078;2023-04-01T12:50:16;3.05;;;1.58;;
20391;SDS011;10355;53.688;10.078;2023-04-01T12:53:06;2.45;;;1.50;;
20391;SDS011;10355;53.688;10.078;2023-04-01T12:55:53;2.35;;;1.48;;
20391;SDS011;10355;53.688;10.078;2023-04-01T12:58:51;2.95;;;1.80;;
20391;SDS011;10355;53.688;10.078;2023-04-01T13:01:46;1.15;;;1.05;;
20391;SDS011;10355;53.688;10.078;2023-04-01T13:04:40;2.15;;;1.40;;
20391;SDS011;10355;53.688;10.078;2023-04-01T13:07:33;1.85;;;1.30;;
20391;SDS011;10355;53.688;10.078;2023-04-01T13:10:25;3.22;;;1.50;;
20391;SDS011;10355;53.688;10.078;2023-04-01T13:13:18;2.80;;;1.50;;
20391;SDS011;10355;53.688;10.078;2023-04-01T13:16:03;2.03;;;1.38;;
20391;SDS011;10355;53.688;10.078;2023-04-01T13:18:54;4.15;;;1.70;;
20391;SDS011;10355;53.688;10.078;2023-04-01T13:21:40;2.47;;;1.50;;
20391;SDS011;10355;53.688;10.078;2023-04-01T13:24:28;2.15;;;1.30;;
20391;SDS011;10355;53.688;10.078;2023-04-01T13:27:14;4.47;;;1.60;;
20391;SDS011;10355;53.688;10.078;2023-04-01T13:30:02;2.45;;;1.42;;
20391;SDS011;10355;53.688;10.078;2023-04-01T13:32:46;3.00;;;1.48;;
20391;SDS011;10355;53.688;10.078;2023-04-01T13:35:34;1.77;;;1.20;;
20391;SDS011;10355;53.688;10.078;2023-04-01T13:41:23;2.55;;;1.60;;
20391;SDS011;10355;53.688;10.078;2023-04-01T13:44:09;5.28;;;1.73;;
20391;SDS011;10355;53.688;10.078;2023-04-01T13:46:57;5.47;;;1.58;;
20391;SDS011;10355;53.688;10.078;2023-04-01T13:50:01;3.33;;;1.80;;
20391;SDS011;10355;53.688;10.078;2023-04-01T13:52:51;4.50;;;1.80;;
20391;SDS011;10355;53.688;10.078;2023-04-01T13:58:47;2.70;;;1.52;;
20391;SDS011;10355;53.688;10.078;2023-04-01T14:01:32;1.52;;;1.33;;
20391;SDS011;10355;53.688;10.078;2023-04-01T14:04:35;2.55;;;1.60;;
20391;SDS011;10355;53.688;10.078;2023-04-01T14:07:31;2.88;;;1.65;;
20391;SDS011;10355;53.688;10.078;2023-04-01T14:10:20;4.60;;;1.40;;
20391;SDS011;10355;53.688;10.078;2023-04-01T14:13:06;2.25;;;1.50;;
20391;SDS011;10355;53.688;10.078;2023-04-01T14:15:58;4.47;;;1.75;;
20391;SDS011;10355;53.688;10.078;2023-04-01T14:18:46;3.75;;;1.60;;
20391;SDS011;10355;53.688;10.078;2023-04-01T14:21:35;2.97;;;1.65;;
20391;SDS011;10355;53.688;10.078;2023-04-01T14:24:23;4.90;;;2.05;;
20391;SDS011;10355;53.688;10.078;2023-04-01T14:33:26;2.60;;;1.58;;
20391;SDS011;10355;53.688;10.078;2023-04-01T14:36:18;3.55;;;1.70;;
20391;SDS011;10355;53.688;10.078;2023-04-01T14:39:09;5.00;;;1.98;;
20391;SDS011;10355;53.688;10.078;2023-04-01T14:41:57;2.97;;;1.70;;
20391;SDS011;10355;53.688;10.078;2023-04-01T14:45:07;4.32;;;1.80;;
20391;SDS011;10355;53.688;10.078;2023-04-01T14:47:55;3.28;;;1.70;;
20391;SDS011;10355;53.688;10.078;2023-04-01T14:50:42;3.65;;;1.60;;
20391;SDS011;10355;53.688;10.078;2023-04-01T14:53:27;3.20;;;1.80;;
20391;SDS011;10355;53.688;10.078;2023-04-01T14:56:10;3.20;;;1.77;;
20391;SDS011;10355;53.688;10.078;2023-04-01T14:58:57;3.72;;;1.63;;
20391;SDS011;10355;53.688;10.078;2023-04-01T15:01:42;8.40;;;1.88;;
20391;SDS011;10355;53.688;10.078;2023-04-01T15:04:42;4.47;;;1.42;;
20391;SDS011;10355;53.688;10.078;2023-04-01T15:13:46;2.95;;;1.52;;
20391;SDS011;10355;53.688;10.078;2023-04-01T15:16:31;3.40;;;1.63;;
20391;SDS011;10355;53.688;10.078;2023-04-01T15:19:19;3.97;;;1.65;;
20391;SDS011;10355;53.688;10.078;2023-04-01T15:25:09;3.80;;;1.70;;
20391;SDS011;10355;53.688;10.078;2023-04-01T15:27:58;2.42;;;1.65;;
20391;SDS011;10355;53.688;10.078;2023-04-01T15:30:46;3.83;;;1.52;;
20391;SDS011;10355;53.688;10.078;2023-04-01T15:33:35;3.38;;;1.48;;
20391;SDS011;10355;53.688;10.078;2023-04-01T15:36:25;3.75;;;1.50;;
20391;SDS011;10355;53.688;10.078;2023-04-01T15:39:13;3.28;;;1.85;;
20391;SDS011;10355;53.688;10.078;2023-04-01T15:42:05;2.33;;;1.60;;
20391;SDS011;10355;53.688;10.078;2023-04-01T15:44:56;2.83;;;1.40;;
20391;SDS011;10355;53.688;10.078;2023-04-01T15:47:44;4.05;;;1.70;;
20391;SDS011;10355;53.688;10.078;2023-04-01T15:50:37;3.47;;;1.80;;
20391;SDS011;10355;53.688;10.078;2023-04-01T15:53:29;4.63;;;1.90;;
20391;SDS011;10355;53.688;10.078;2023-04-01T15:59:18;6.13;;;2.03;;
20391;SDS011;10355;53.688;10.078;2023-04-01T16:02:07;2.78;;;1.80;;
20391;SDS011;10355;53.688;10.078;2023-04-01T16:04:57;5.00;;;2.30;;
20391;SDS011;10355;53.688;10.078;2023-04-01T16:07:48;3.97;;;2.13;;
20391;SDS011;10355;53.688;10.078;2023-04-01T16:10:36;5.25;;;2.20;;
20391;SDS011;10355;53.688;10.078;2023-04-01T16:13:23;4.90;;;2.22;;
20391;SDS011;10355;53.688;10.078;2023-04-01T16:16:08;6.10;;;2.30;;
20391;SDS011;10355;53.688;10.078;2023-04-01T16:19:06;5.78;;;2.15;;
20391;SDS011;10355;53.688;10.078;2023-04-01T16:21:57;5.50;;;2.28;;
20391;SDS011;10355;53.688;10.078;2023-04-01T16:24:43;5.72;;;2.15;;
20391;SDS011;10355;53.688;10.078;2023-04-01T16:27:29;4.55;;;2.08;;
20391;SDS011;10355;53.688;10.078;2023-04-01T16:30:26;9.20;;;2.05;;
20391;SDS011;10355;53.688;10.078;2023-04-01T16:33:17;4.13;;;2.40;;
20391;SDS011;10355;53.688;10.078;2023-04-01T16:36:06;6.00;;;2.25;;
20391;SDS011;10355;53.688;10.078;2023-04-01T16:38:55;5.45;;;2.13;;
20391;SDS011;10355;53.688;10.078;2023-04-01T16:41:42;4.72;;;2.42;;
20391;SDS011;10355;53.688;10.078;2023-04-01T16:44:30;3.78;;;2.30;;
20391;SDS011;10355;53.688;10.078;2023-04-01T16:47:13;5.75;;;2.50;;
20391;SDS011;10355;53.688;10.078;2023-04-01T16:49:58;6.25;;;2.53;;
20391;SDS011;10355;53.688;10.078;2023-04-01T16:52:48;4.15;;;2.40;;
20391;SDS011;10355;53.688;10.078;2023-04-01T16:55:43;10.82;;;3.22;;
20391;SDS011;10355;53.688;10.078;2023-04-01T16:58:27;6.18;;;2.53;;
20391;SDS011;10355;53.688;10.078;2023-04-01T17:01:16;5.55;;;2.25;;
20391;SDS011;10355;53.688;10.078;2023-04-01T17:04:04;5.75;;;2.35;;
20391;SDS011;10355;53.688;10.078;2023-04-01T17:06:49;3.22;;;1.88;;
20391;SDS011;10355;53.688;10.078;2023-04-01T17:09:38;3.70;;;2.05;;
20391;SDS011;10355;53.688;10.078;2023-04-01T17:12:27;4.00;;;1.92;;
20391;SDS011;10355;53.688;10.078;2023-04-01T17:15:14;2.78;;;1.83;;
20391;SDS011;10355;53.688;10.078;2023-04-01T17:18:04;3.38;;;1.70;;
20391;SDS011;10355;53.688;10.078;2023-04-01T17:20:50;3.45;;;1.63;;
20391;SDS011;10355;53.688;10.078;2023-04-01T17:23:39;3.45;;;1.80;;
20391;SDS011;10355;53.688;10.078;2023-04-01T17:26:26;3.58;;;1.73;;
20391;SDS011;10355;53.688;10.078;2023-04-01T17:29:15;1.90;;;1.35;;
20391;SDS011;10355;53.688;10.078;2023-04-01T17:32:03;3.35;;;1.42;;
20391;SDS011;10355;53.688;10.078;2023-04-01T17:34:52;4.28;;;1.88;;
20391;SDS011;10355;53.688;10.078;2023-04-01T17:37:41;2.67;;;1.63;;
20391;SDS011;10355;53.688;10.078;2023-04-01T17:40:34;5.25;;;1.80;;
20391;SDS011;10355;53.688;10.078;2023-04-01T17:43:22;3.33;;;2.00;;
20391;SDS011;10355;53.688;10.078;2023-04-01T17:46:10;3.38;;;2.10;;
20391;SDS011;10355;53.688;10.078;2023-04-01T17:49:05;4.30;;;1.70;;
20391;SDS011;10355;53.688;10.078;2023-04-01T17:51:54;3.80;;;1.60;;
20391;SDS011;10355;53.688;10.078;2023-04-01T17:54:42;3.45;;;1.60;;
20391;SDS011;10355;53.688;10.078;2023-04-01T17:57:34;3.65;;;1.52;;
20391;SDS011;10355;53.688;10.078;2023-04-01T18:00:23;3.55;;;1.67;;
20391;SDS011;10355;53.688;10.078;2023-04-01T18:03:12;3.78;;;2.05;;
20391;SDS011;10355;53.688;10.078;2023-04-01T18:06:02;3.45;;;1.67;;
20391;SDS011;10355;53.688;10.078;2023-04-01T18:08:49;5.72;;;1.88;;
20391;SDS011;10355;53.688;10.078;2023-04-01T18:11:39;7.18;;;2.00;;